createdAt,value
2019-01-19T00:03:09.800Z,22.1
2019-01-19T00:13:09.005Z,22
2019-01-19T00:23:08.212Z,21.9
2019-01-19T00:33:07.420Z,22
2019-01-19T00:43:06.626Z,22.1
2019-01-19T00:53:05.832Z,22
2019-01-19T01:03:05.041Z,21.9
2019-01-19T01:13:04.246Z,21.9
2019-01-19T01:23:03.459Z,21.8
2019-01-19T01:33:02.662Z,21.8
2019-01-19T01:43:01.865Z,22
2019-01-19T01:53:01.073Z,21.9
2019-01-19T02:03:00.283Z,21.8
2019-01-19T02:12:59.489Z,21.8
2019-01-19T02:22:58.691Z,21.9
2019-01-19T02:32:57.898Z,21.9
2019-01-19T02:42:57.102Z,21.8
2019-01-19T02:52:56.309Z,21.8
2019-01-19T03:02:55.514Z,21.7
2019-01-19T03:12:54.721Z,21.9
2019-01-19T03:22:53.927Z,21.8
2019-01-19T03:32:53.132Z,21.9
2019-01-19T03:42:52.338Z,21.8
2019-01-19T03:52:51.548Z,21.9
2019-01-19T04:02:50.762Z,22
2019-01-19T04:12:49.969Z,21.9
2019-01-19T04:22:49.175Z,21.9
2019-01-19T04:32:48.383Z,21.8
2019-01-19T04:42:47.588Z,21.8
2019-01-19T04:52:46.794Z,21.7
2019-01-19T05:02:46.011Z,21.6
2019-01-19T05:12:45.208Z,21.9
2019-01-19T05:22:44.409Z,21.8
2019-01-19T05:32:43.615Z,21.7
2019-01-19T05:42:42.819Z,21.6
2019-01-19T05:52:42.024Z,21.6
2019-01-19T06:02:41.229Z,21.5
2019-01-19T06:12:40.434Z,21.7
2019-01-19T06:22:39.638Z,21.8
2019-01-19T06:32:38.845Z,21.8
2019-01-19T06:42:38.046Z,21.8
2019-01-19T06:52:37.254Z,21.7
2019-01-19T07:02:36.462Z,21.6
2019-01-19T07:12:35.672Z,21.7
2019-01-19T07:22:34.887Z,21.9
2019-01-19T07:32:34.097Z,21.8
2019-01-19T07:42:34.015Z,21.7
2019-01-19T07:52:32.520Z,21.6
2019-01-19T08:02:31.734Z,21.6
2019-01-19T08:12:30.948Z,21.6
2019-01-19T08:22:30.162Z,21.6
2019-01-19T08:32:29.374Z,21.8
2019-01-19T08:42:28.587Z,21.9
2019-01-19T08:52:27.801Z,22
2019-01-19T09:02:27.010Z,22.1
2019-01-19T09:12:26.223Z,22.1
2019-01-19T09:22:25.447Z,22.1
2019-01-19T09:32:24.654Z,22
2019-01-19T09:42:23.868Z,22
2019-01-19T09:52:23.084Z,22
2019-01-19T10:02:22.302Z,22
2019-01-19T10:12:21.518Z,22
2019-01-19T10:22:20.737Z,22.1
2019-01-19T10:32:19.959Z,22
2019-01-19T10:42:19.171Z,22
2019-01-19T10:52:18.443Z,22
2019-01-19T11:02:17.606Z,21.9
2019-01-19T11:12:16.823Z,21.9
2019-01-19T11:22:16.041Z,22
2019-01-19T11:32:15.254Z,22
2019-01-19T11:42:14.468Z,22
2019-01-19T11:52:13.678Z,22
2019-01-19T12:02:12.895Z,22
2019-01-19T12:12:12.107Z,21.9
2019-01-19T12:22:11.322Z,21.9
2019-01-19T12:32:10.540Z,21.8
2019-01-19T12:42:09.756Z,21.8
2019-01-19T12:52:08.970Z,21.9
2019-01-19T13:02:08.188Z,21.9
2019-01-19T13:12:07.431Z,21.9
2019-01-19T13:22:06.625Z,21.9
2019-01-19T13:32:05.892Z,21.9
2019-01-19T13:42:05.055Z,21.9
2019-01-19T13:52:04.294Z,22.1
2019-01-19T14:02:03.480Z,22
2019-01-19T14:12:02.690Z,22
2019-01-19T14:22:01.906Z,21.9
2019-01-19T14:32:01.111Z,21.9
2019-01-19T14:42:00.318Z,21.9
2019-01-19T14:51:59.531Z,21.9
2019-01-19T15:01:58.747Z,21.9
2019-01-19T15:11:57.960Z,21.9
2019-01-19T15:21:57.174Z,21.9
2019-01-19T15:31:56.446Z,21.8
2019-01-19T15:41:55.608Z,22
2019-01-19T15:51:54.831Z,21.9
2019-01-19T16:01:54.045Z,21.9
2019-01-19T16:11:53.264Z,21.9
2019-01-19T16:21:52.485Z,21.9
2019-01-19T16:31:51.707Z,22
2019-01-19T16:41:50.955Z,22
2019-01-19T16:51:50.153Z,22
2019-01-19T17:01:49.378Z,21.9
2019-01-19T17:11:48.600Z,21.9
2019-01-19T17:21:47.824Z,21.9
2019-01-19T17:31:47.048Z,22
2019-01-19T17:41:46.299Z,22.1
2019-01-19T17:51:45.492Z,22.1
2019-01-19T18:01:44.741Z,22.1
2019-01-19T18:11:43.961Z,22.1
2019-01-19T18:21:43.151Z,22.1
2019-01-19T18:31:42.368Z,22.1
2019-01-19T18:41:41.582Z,22.2
2019-01-19T18:51:40.830Z,22.1
2019-01-19T19:01:40.039Z,22.1
2019-01-19T19:11:39.232Z,22.1
2019-01-19T19:21:38.441Z,22.2
2019-01-19T19:31:37.669Z,22.2
2019-01-19T19:41:36.887Z,22.4
2019-01-19T19:51:36.097Z,22.4
2019-01-19T20:01:35.317Z,22.4
2019-01-19T20:11:34.537Z,22.3
2019-01-19T20:21:33.769Z,22.4
2019-01-19T20:31:32.995Z,22.3
2019-01-19T20:41:32.209Z,22.4
2019-01-19T20:51:31.427Z,22.4
2019-01-19T21:01:30.638Z,22.4
2019-01-19T21:11:29.849Z,22.4
2019-01-19T21:21:29.065Z,22.5
2019-01-19T21:31:28.304Z,22.5
2019-01-19T21:41:27.493Z,22.5
2019-01-19T21:51:26.709Z,22.4
2019-01-19T22:01:25.921Z,22.3
2019-01-19T22:11:25.135Z,22.5
2019-01-19T22:21:24.347Z,22.5
2019-01-19T22:31:23.559Z,22.4
2019-01-19T22:41:22.773Z,22.5
2019-01-19T22:51:22.033Z,22.3
2019-01-19T23:01:21.192Z,22.3
2019-01-19T23:11:20.404Z,22.2
2019-01-19T23:21:19.613Z,22.1
2019-01-19T23:31:18.824Z,22.3
2019-01-19T23:41:18.033Z,22.2
2019-01-19T23:51:17.242Z,22.4
